createdAt,value
2022-11-20T00:00:35.555Z,53.66
2022-11-20T00:03:19.934Z,56.53
2022-11-20T00:06:04.593Z,57.21
2022-11-20T00:08:37.473Z,57.69
2022-11-20T00:11:16.525Z,59.82
2022-11-20T00:13:52.895Z,65.27
2022-11-20T00:16:27.097Z,68.90
2022-11-20T00:19:00.306Z,63.07
2022-11-20T00:21:29.718Z,57.07
2022-11-20T00:24:03.889Z,54.69
2022-11-20T00:26:37.479Z,55.38
2022-11-20T00:29:13.115Z,56.73
2022-11-20T00:31:53.335Z,61.65
2022-11-20T00:34:29.919Z,66.54
2022-11-20T00:37:02.795Z,67.05
2022-11-20T00:39:36.842Z,61.78
2022-11-20T00:42:16.238Z,55.61
2022-11-20T00:44:49.837Z,52.83
2022-11-20T00:47:17.783Z,54.63
2022-11-20T00:49:47.809Z,55.89
2022-11-20T00:52:15.712Z,60.18
2022-11-20T00:54:46.100Z,64.57
2022-11-20T00:57:14.004Z,67.38
2022-11-20T00:59:47.916Z,63.68
2022-11-20T01:02:17.428Z,58.34
2022-11-20T01:04:45.443Z,55.06
2022-11-20T01:07:20.919Z,58.76
2022-11-20T01:09:53.466Z,63.09
2022-11-20T01:12:21.471Z,63.01
2022-11-20T01:14:53.969Z,60.31
2022-11-20T01:17:21.945Z,56.40
2022-11-20T01:19:51.604Z,55.93
2022-11-20T01:22:19.502Z,60.26
2022-11-20T01:24:47.451Z,63.10
2022-11-20T01:27:15.324Z,64.79
2022-11-20T01:29:43.201Z,61.02
2022-11-20T01:32:11.119Z,54.98
2022-11-20T01:34:39.032Z,52.24
2022-11-20T01:37:06.964Z,53.54
2022-11-20T01:39:39.464Z,54.99
2022-11-20T01:42:31.188Z,57.72
2022-11-20T01:45:00.923Z,61.92
2022-11-20T01:47:43.773Z,66.49
2022-11-20T01:50:17.355Z,63.66
2022-11-20T01:52:53.014Z,59.01
2022-11-20T01:55:24.820Z,55.18
2022-11-20T01:58:03.523Z,53.23
2022-11-20T02:00:31.915Z,52.44
2022-11-20T02:03:06.526Z,51.37
2022-11-20T02:05:53.318Z,50.40
2022-11-20T02:08:22.824Z,48.08
2022-11-20T02:10:50.780Z,48.09
2022-11-20T02:13:42.700Z,48.11
2022-11-20T02:16:21.804Z,48.08
2022-11-20T02:18:51.702Z,47.61
2022-11-20T02:21:29.520Z,45.47
2022-11-20T02:24:09.718Z,44.64
2022-11-20T02:26:57.243Z,44.52
2022-11-20T02:29:32.184Z,44.87
2022-11-20T02:32:02.852Z,44.66
2022-11-20T02:34:30.728Z,44.51
2022-11-20T02:37:00.329Z,43.84
2022-11-20T02:39:33.862Z,44.00
2022-11-20T02:42:06.352Z,44.84
2022-11-20T02:44:34.423Z,44.95
2022-11-20T02:47:02.406Z,44.22
2022-11-20T02:49:30.332Z,43.38
2022-11-20T02:51:58.373Z,42.95
2022-11-20T02:54:34.489Z,42.61
2022-11-20T02:57:02.480Z,41.93
2022-11-20T02:59:30.427Z,41.61
2022-11-20T03:01:58.347Z,42.09
2022-11-20T03:04:32.031Z,41.98
2022-11-20T03:07:09.835Z,42.63
2022-11-20T03:09:43.397Z,41.73
2022-11-20T03:12:19.001Z,41.52
2022-11-20T03:14:53.239Z,42.13
2022-11-20T03:17:26.030Z,42.56
2022-11-20T03:19:53.915Z,42.70
2022-11-20T03:22:31.211Z,43.11
2022-11-20T03:25:06.021Z,43.43
2022-11-20T03:27:40.480Z,43.36
2022-11-20T03:30:16.456Z,41.88
2022-11-20T03:32:49.019Z,42.31
2022-11-20T03:35:22.544Z,42.98
2022-11-20T03:37:54.995Z,43.16
2022-11-20T03:40:30.500Z,42.79
2022-11-20T03:43:04.902Z,43.12
2022-11-20T03:45:38.249Z,43.78
2022-11-20T03:48:10.797Z,44.06
2022-11-20T03:50:43.198Z,44.19
2022-11-20T03:53:16.917Z,44.64
2022-11-20T03:55:52.771Z,44.37
2022-11-20T03:58:27.324Z,45.19
2022-11-20T04:01:05.743Z,46.07
2022-11-20T04:03:42.821Z,45.90
2022-11-20T04:06:38.300Z,45.49
2022-11-20T04:09:11.829Z,45.58
2022-11-20T04:11:45.781Z,44.90
2022-11-20T04:14:19.376Z,44.62
2022-11-20T04:16:55.263Z,44.44
2022-11-20T04:19:30.239Z,44.60
2022-11-20T04:22:04.673Z,44.74
2022-11-20T04:24:39.220Z,44.60
2022-11-20T04:27:12.698Z,44.70
2022-11-20T04:29:46.310Z,44.35
2022-11-20T04:32:18.812Z,43.74
2022-11-20T04:34:51.299Z,44.08
2022-11-20T04:37:25.852Z,43.25
2022-11-20T04:40:00.640Z,42.35
2022-11-20T04:42:34.009Z,42.02
2022-11-20T04:45:09.732Z,42.64
2022-11-20T04:47:43.231Z,41.98
2022-11-20T04:50:17.724Z,41.38
2022-11-20T04:52:51.131Z,40.46
2022-11-20T04:55:28.594Z,38.50
2022-11-20T04:58:02.171Z,39.19
2022-11-20T05:00:35.819Z,42.80
2022-11-20T05:03:10.321Z,43.59
2022-11-20T05:05:42.706Z,47.94
2022-11-20T05:08:17.121Z,47.57
2022-11-20T05:10:49.566Z,48.55
2022-11-20T05:13:24.997Z,46.97
2022-11-20T05:16:09.293Z,53.06
2022-11-20T05:18:44.971Z,59.75
2022-11-20T05:21:19.182Z,53.99
2022-11-20T05:23:53.621Z,49.34
2022-11-20T05:26:26.005Z,47.20
2022-11-20T05:29:02.012Z,46.34
2022-11-20T05:31:34.587Z,45.49
2022-11-20T05:34:09.565Z,45.41
2022-11-20T05:36:45.121Z,45.63
2022-11-20T05:39:17.575Z,44.92
2022-11-20T05:42:23.898Z,44.68
2022-11-20T05:45:02.199Z,45.62
2022-11-20T05:47:37.637Z,45.30
2022-11-20T05:50:15.526Z,44.98
2022-11-20T05:52:51.500Z,44.05
2022-11-20T05:55:27.862Z,42.41
2022-11-20T05:58:01.336Z,41.57
2022-11-20T06:00:37.249Z,40.29
2022-11-20T06:03:12.786Z,40.58
2022-11-20T06:05:46.311Z,40.90
2022-11-20T06:08:18.814Z,41.03
2022-11-20T06:10:51.251Z,41.12
2022-11-20T06:13:26.644Z,41.17
2022-11-20T06:16:03.492Z,42.19
2022-11-20T06:18:36.011Z,42.10
2022-11-20T06:21:16.805Z,42.21
2022-11-20T06:23:51.752Z,41.46
2022-11-20T06:26:26.574Z,40.72
2022-11-20T06:29:02.581Z,40.49
2022-11-20T06:31:38.853Z,40.18
2022-11-20T06:34:12.956Z,40.30
2022-11-20T06:36:45.384Z,40.08
2022-11-20T06:39:21.207Z,40.14
2022-11-20T06:41:58.816Z,41.27
2022-11-20T06:44:36.870Z,41.73
2022-11-20T06:47:10.896Z,41.59
2022-11-20T06:49:44.931Z,41.93
2022-11-20T06:52:18.343Z,41.76
2022-11-20T06:54:50.882Z,41.81
2022-11-20T06:57:26.681Z,41.33
2022-11-20T07:00:01.150Z,40.94
2022-11-20T07:02:34.603Z,41.40
2022-11-20T07:05:07.396Z,42.56
2022-11-20T07:07:41.394Z,41.30
2022-11-20T07:10:17.497Z,40.35
2022-11-20T07:12:53.456Z,39.75
2022-11-20T07:15:26.907Z,42.81
2022-11-20T07:18:02.617Z,46.33
2022-11-20T07:20:38.590Z,47.60
2022-11-20T07:23:13.074Z,50.10
2022-11-20T07:25:46.896Z,51.93
2022-11-20T07:28:20.378Z,49.26
2022-11-20T07:30:53.933Z,54.61
2022-11-20T07:33:29.170Z,56.30
2022-11-20T07:36:03.070Z,58.19
2022-11-20T07:38:38.788Z,63.81
2022-11-20T07:41:13.319Z,66.48
2022-11-20T07:43:46.703Z,58.41
2022-11-20T07:46:24.717Z,52.39
2022-11-20T07:48:58.191Z,53.71
2022-11-20T07:51:30.735Z,56.95
2022-11-20T07:54:04.303Z,57.88
2022-11-20T07:56:37.813Z,59.58
2022-11-20T07:59:12.867Z,65.06
2022-11-20T08:01:45.313Z,66.79
2022-11-20T08:04:20.748Z,58.45
2022-11-20T08:06:54.503Z,53.29
2022-11-20T08:09:31.947Z,54.86
2022-11-20T08:12:25.940Z,56.10
2022-11-20T08:15:01.421Z,57.25
2022-11-20T08:17:36.376Z,58.92
2022-11-20T08:20:04.847Z,65.37
2022-11-20T08:22:38.695Z,67.89
2022-11-20T08:25:11.162Z,61.03
2022-11-20T08:27:44.131Z,53.68
2022-11-20T08:30:18.183Z,53.03
2022-11-20T08:32:50.698Z,54.33
2022-11-20T08:35:28.097Z,57.15
2022-11-20T08:38:06.633Z,59.15
2022-11-20T08:40:40.122Z,60.48
2022-11-20T08:43:13.635Z,65.68
2022-11-20T08:45:47.560Z,65.30
2022-11-20T08:48:21.967Z,56.17
2022-11-20T08:50:54.476Z,53.80
2022-11-20T08:53:29.997Z,55.41
2022-11-20T08:56:03.571Z,57.03
2022-11-20T08:59:01.844Z,58.46
2022-11-20T09:01:34.764Z,59.92
2022-11-20T09:04:09.367Z,64.49
2022-11-20T09:06:44.874Z,64.14
2022-11-20T09:09:19.786Z,54.61
2022-11-20T09:11:53.682Z,53.38
2022-11-20T09:14:30.207Z,55.66
2022-11-20T09:17:08.654Z,56.48
2022-11-20T09:19:43.081Z,59.25
2022-11-20T09:22:11.083Z,59.66
2022-11-20T09:24:39.095Z,59.38
2022-11-20T09:27:12.580Z,65.04
2022-11-20T09:29:40.788Z,66.19
2022-11-20T09:32:08.899Z,59.84
2022-11-20T09:34:36.863Z,52.83
2022-11-20T09:37:07.613Z,53.18
2022-11-20T09:39:39.933Z,55.23
2022-11-20T09:42:33.849Z,57.18
2022-11-20T09:45:36.463Z,56.90
2022-11-20T09:48:45.900Z,58.71
2022-11-20T09:51:34.623Z,59.88
2022-11-20T09:54:11.826Z,66.83
2022-11-20T09:56:44.311Z,65.34
2022-11-20T09:59:27.371Z,58.15
2022-11-20T10:01:56.644Z,52.96
2022-11-20T10:04:25.727Z,53.95
2022-11-20T10:07:31.818Z,56.06
2022-11-20T10:10:00.927Z,55.28
2022-11-20T10:12:41.100Z,58.44
2022-11-20T10:15:35.054Z,60.00
2022-11-20T10:18:39.905Z,64.51
2022-11-20T10:21:29.008Z,64.33
2022-11-20T10:24:10.684Z,54.93
2022-11-20T10:26:54.742Z,52.04
2022-11-20T10:29:34.882Z,53.52
2022-11-20T10:32:08.809Z,54.23
2022-11-20T10:34:49.976Z,55.14
2022-11-20T10:37:24.102Z,56.38
2022-11-20T10:39:51.924Z,59.74
2022-11-20T10:42:43.567Z,62.82
2022-11-20T10:45:27.944Z,66.24
2022-11-20T10:48:09.037Z,60.59
2022-11-20T10:50:44.051Z,52.79
2022-11-20T10:53:51.184Z,51.29
2022-11-20T10:56:49.935Z,51.71
2022-11-20T10:59:24.614Z,52.96
2022-11-20T11:01:52.792Z,54.94
2022-11-20T11:04:45.215Z,57.54
2022-11-20T11:07:21.556Z,56.88
2022-11-20T11:09:53.749Z,57.53
2022-11-20T11:12:23.589Z,58.82
2022-11-20T11:14:56.837Z,63.30
2022-11-20T11:17:33.460Z,65.56
2022-11-20T11:20:04.539Z,56.13
2022-11-20T11:22:35.372Z,52.24
2022-11-20T11:25:03.533Z,52.37
2022-11-20T11:27:35.281Z,53.80
2022-11-20T11:30:14.965Z,54.23
2022-11-20T11:32:43.646Z,54.91
2022-11-20T11:35:28.111Z,55.90
2022-11-20T11:38:08.383Z,59.10
2022-11-20T11:40:39.207Z,61.16
2022-11-20T11:43:45.757Z,63.88
2022-11-20T11:46:34.756Z,64.28
2022-11-20T11:49:12.488Z,55.65
2022-11-20T11:52:00.631Z,52.12
2022-11-20T11:54:42.584Z,53.24
2022-11-20T11:57:30.707Z,55.75
2022-11-20T12:00:15.477Z,57.01
2022-11-20T12:02:46.404Z,57.76
2022-11-20T12:05:27.953Z,57.49
2022-11-20T12:08:09.473Z,59.19
2022-11-20T12:11:12.647Z,59.13
2022-11-20T12:14:13.887Z,59.82
2022-11-20T12:16:42.043Z,65.87
2022-11-20T12:19:14.906Z,67.56
2022-11-20T12:22:00.595Z,61.88
2022-11-20T12:24:58.238Z,53.36
2022-11-20T12:27:41.045Z,52.11
2022-11-20T12:30:16.444Z,53.22
2022-11-20T12:33:13.885Z,54.03
2022-11-20T12:36:17.056Z,55.84
2022-11-20T12:39:12.185Z,56.49
2022-11-20T12:42:25.541Z,57.07
2022-11-20T12:45:13.104Z,57.37
2022-11-20T12:47:48.866Z,59.25
2022-11-20T12:51:07.905Z,64.03
2022-11-20T12:53:40.598Z,68.02
2022-11-20T12:56:27.058Z,59.12
2022-11-20T12:59:19.479Z,52.57
2022-11-20T13:02:15.188Z,52.28
2022-11-20T13:05:12.452Z,54.16
2022-11-20T13:07:48.368Z,56.21
2022-11-20T13:10:48.816Z,57.01
2022-11-20T13:14:00.973Z,57.71
2022-11-20T13:16:37.925Z,66.88
2022-11-20T13:19:13.658Z,62.60
2022-11-20T13:21:47.735Z,53.52
2022-11-20T13:24:24.650Z,50.41
2022-11-20T13:27:06.020Z,51.20
2022-11-20T13:29:35.939Z,52.48
2022-11-20T13:32:08.079Z,54.42
2022-11-20T13:34:37.194Z,53.59
2022-11-20T13:37:05.452Z,53.98
2022-11-20T13:39:37.720Z,53.81
2022-11-20T13:42:15.346Z,51.87
2022-11-20T13:44:48.239Z,49.82
2022-11-20T13:47:27.830Z,48.29
2022-11-20T13:50:00.487Z,48.68
2022-11-20T13:52:46.456Z,47.09
2022-11-20T13:55:26.385Z,45.43
2022-11-20T13:58:36.012Z,44.42
2022-11-20T14:01:16.602Z,44.36
2022-11-20T14:04:05.013Z,43.05
2022-11-20T14:06:39.755Z,42.94
2022-11-20T14:09:13.741Z,43.81
2022-11-20T14:11:49.005Z,45.87
2022-11-20T14:14:19.130Z,47.39
2022-11-20T14:16:48.546Z,50.16
2022-11-20T14:19:22.549Z,50.37
2022-11-20T14:21:53.706Z,52.65
2022-11-20T14:24:24.130Z,56.23
2022-11-20T14:26:53.383Z,56.30
2022-11-20T14:29:29.901Z,58.58
2022-11-20T14:31:58.534Z,60.20
2022-11-20T14:34:29.909Z,64.38
2022-11-20T14:37:04.371Z,68.53
2022-11-20T14:39:43.043Z,65.98
2022-11-20T14:42:19.427Z,59.15
2022-11-20T14:44:49.548Z,52.91
2022-11-20T14:47:24.587Z,52.81
2022-11-20T14:49:54.722Z,54.39
2022-11-20T14:52:25.627Z,55.29
2022-11-20T14:55:01.486Z,56.75
2022-11-20T14:58:01.652Z,58.04
2022-11-20T15:00:31.222Z,58.22
2022-11-20T15:02:59.598Z,60.15
2022-11-20T15:05:47.116Z,65.58
2022-11-20T15:08:15.815Z,70.09
2022-11-20T15:10:49.577Z,64.64
2022-11-20T15:13:27.285Z,57.57
2022-11-20T15:15:57.327Z,54.59
2022-11-20T15:18:28.889Z,55.57
2022-11-20T15:20:59.823Z,57.40
2022-11-20T15:23:28.899Z,58.19
2022-11-20T15:25:57.080Z,59.88
2022-11-20T15:28:40.611Z,64.48
2022-11-20T15:31:12.637Z,68.68
2022-11-20T15:33:40.598Z,62.34
2022-11-20T15:36:09.031Z,56.23
2022-11-20T15:38:37.238Z,54.23
2022-11-20T15:41:05.501Z,56.11
2022-11-20T15:43:33.560Z,58.05
2022-11-20T15:46:06.157Z,58.78
2022-11-20T15:48:46.379Z,59.77
2022-11-20T15:51:25.927Z,66.16
2022-11-20T15:53:55.240Z,67.37
2022-11-20T15:56:23.351Z,62.49
2022-11-20T15:58:51.586Z,56.55
2022-11-20T16:01:22.350Z,54.51
2022-11-20T16:03:50.446Z,55.81
2022-11-20T16:06:18.635Z,57.76
2022-11-20T16:08:46.657Z,59.41
2022-11-20T16:11:16.690Z,64.60
2022-11-20T16:14:04.210Z,67.17
2022-11-20T16:16:34.667Z,62.76
2022-11-20T16:19:02.798Z,57.11
2022-11-20T16:21:32.443Z,55.08
2022-11-20T16:24:02.288Z,56.96
2022-11-20T16:26:31.106Z,57.78
2022-11-20T16:29:04.198Z,59.48
2022-11-20T16:31:33.166Z,65.34
2022-11-20T16:34:10.046Z,66.56
2022-11-20T16:36:44.666Z,62.47
2022-11-20T16:39:16.702Z,55.97
2022-11-20T16:41:49.679Z,53.84
2022-11-20T16:44:17.658Z,55.85
2022-11-20T16:46:45.570Z,57.41
2022-11-20T16:49:15.789Z,59.30
2022-11-20T16:51:43.782Z,64.75
2022-11-20T16:54:16.369Z,67.67
2022-11-20T16:56:48.066Z,62.88
2022-11-20T16:59:16.149Z,57.46
2022-11-20T17:01:44.266Z,54.92
2022-11-20T17:04:12.576Z,56.56
2022-11-20T17:06:47.879Z,58.63
2022-11-20T17:09:16.099Z,59.05
2022-11-20T17:11:44.638Z,64.99
2022-11-20T17:14:12.892Z,67.14
2022-11-20T17:16:41.124Z,62.32
2022-11-20T17:19:09.134Z,56.87
2022-11-20T17:21:38.160Z,54.73
2022-11-20T17:24:09.744Z,56.23
2022-11-20T17:26:39.857Z,57.18
2022-11-20T17:29:13.491Z,58.58
2022-11-20T17:31:41.882Z,64.67
2022-11-20T17:34:12.585Z,66.11
2022-11-20T17:36:45.295Z,58.97
2022-11-20T17:39:15.086Z,53.94
2022-11-20T17:41:43.437Z,54.96
2022-11-20T17:44:13.067Z,56.74
2022-11-20T17:46:41.260Z,58.27
2022-11-20T17:49:09.156Z,59.37
2022-11-20T17:51:37.096Z,65.00
2022-11-20T17:54:09.410Z,66.58
2022-11-20T17:56:56.089Z,62.05
2022-11-20T17:59:24.038Z,55.96
2022-11-20T18:01:52.107Z,54.35
2022-11-20T18:04:20.441Z,56.39
2022-11-20T18:06:48.310Z,57.93
2022-11-20T18:09:16.681Z,58.72
2022-11-20T18:11:45.497Z,63.85
2022-11-20T18:14:37.436Z,66.54
2022-11-20T18:17:11.807Z,57.49
2022-11-20T18:19:55.252Z,54.95
2022-11-20T18:22:29.878Z,57.03
2022-11-20T18:24:58.049Z,58.14
2022-11-20T18:27:26.108Z,59.72
2022-11-20T18:29:54.168Z,65.40
2022-11-20T18:32:22.784Z,67.48
2022-11-20T18:34:51.354Z,63.42
2022-11-20T18:37:19.444Z,58.31
2022-11-20T18:39:47.401Z,55.39
2022-11-20T18:42:35.104Z,56.24
2022-11-20T18:45:08.534Z,59.33
2022-11-20T18:47:40.321Z,59.93
2022-11-20T18:50:10.577Z,66.27
2022-11-20T18:52:41.816Z,67.81
2022-11-20T18:55:11.150Z,62.65
2022-11-20T18:57:39.158Z,57.32
2022-11-20T19:00:09.616Z,54.46
2022-11-20T19:02:42.117Z,55.87
2022-11-20T19:05:12.493Z,58.08
2022-11-20T19:07:40.976Z,58.77
2022-11-20T19:10:09.483Z,63.29
2022-11-20T19:12:37.436Z,65.02
2022-11-20T19:15:05.939Z,62.44
2022-11-20T19:17:34.378Z,58.00
2022-11-20T19:20:02.311Z,56.02
2022-11-20T19:22:30.290Z,58.38
2022-11-20T19:24:58.238Z,64.28
2022-11-20T19:27:26.459Z,66.46
2022-11-20T19:30:01.509Z,62.10
2022-11-20T19:32:29.571Z,56.59
2022-11-20T19:34:57.517Z,55.36
2022-11-20T19:37:25.488Z,56.89
2022-11-20T19:39:56.718Z,57.99
2022-11-20T19:42:24.621Z,63.20
2022-11-20T19:44:53.056Z,66.00
2022-11-20T19:47:22.793Z,63.09
2022-11-20T19:49:50.854Z,58.12
2022-11-20T19:52:18.784Z,55.38
2022-11-20T19:54:46.754Z,57.15
2022-11-20T19:57:14.729Z,62.60
2022-11-20T19:59:44.845Z,64.52
2022-11-20T20:02:12.946Z,60.59
2022-11-20T20:04:40.986Z,57.81
2022-11-20T20:07:09.006Z,59.99
2022-11-20T20:09:37.029Z,64.56
2022-11-20T20:12:05.300Z,64.82
2022-11-20T20:14:34.868Z,59.29
2022-11-20T20:17:02.805Z,55.60
2022-11-20T20:19:30.871Z,57.49
2022-11-20T20:21:58.816Z,58.70
2022-11-20T20:24:26.778Z,64.79
2022-11-20T20:26:58.208Z,65.17
2022-11-20T20:29:26.763Z,62.58
2022-11-20T20:31:54.787Z,57.35
2022-11-20T20:34:23.475Z,57.64
2022-11-20T20:36:51.412Z,60.00
2022-11-20T20:39:19.818Z,63.91
2022-11-20T20:41:47.685Z,65.84
2022-11-20T20:44:34.496Z,61.27
2022-11-20T20:47:02.378Z,57.52
2022-11-20T20:49:30.287Z,58.23
2022-11-20T20:51:58.212Z,63.68
2022-11-20T20:54:29.240Z,62.73
2022-11-20T20:56:59.563Z,61.48
2022-11-20T20:59:27.675Z,57.62
2022-11-20T21:01:55.583Z,58.40
2022-11-20T21:04:23.621Z,62.77
2022-11-20T21:06:51.574Z,66.01
2022-11-20T21:09:20.449Z,62.19
2022-11-20T21:11:48.557Z,58.27
2022-11-20T21:14:16.531Z,57.36
2022-11-20T21:16:44.499Z,61.92
2022-11-20T21:19:12.619Z,65.11
2022-11-20T21:21:59.099Z,62.55
2022-11-20T21:24:27.883Z,57.44
2022-11-20T21:26:57.241Z,58.37
2022-11-20T21:29:26.745Z,58.60
2022-11-20T21:31:55.071Z,64.16
2022-11-20T21:34:23.816Z,66.64
2022-11-20T21:36:52.105Z,60.78
2022-11-20T21:39:21.843Z,55.40
2022-11-20T21:41:49.835Z,55.73
2022-11-20T21:44:33.582Z,57.72
2022-11-20T21:47:01.506Z,59.12
2022-11-20T21:49:29.471Z,65.72
2022-11-20T21:51:57.407Z,65.98
2022-11-20T21:54:25.594Z,61.20
2022-11-20T21:56:53.815Z,55.76
2022-11-20T21:59:22.341Z,54.29
2022-11-20T22:01:50.318Z,55.76
2022-11-20T22:04:18.448Z,58.00
2022-11-20T22:06:46.414Z,63.47
2022-11-20T22:09:14.342Z,65.63
2022-11-20T22:11:42.232Z,60.88
2022-11-20T22:14:21.387Z,56.08
2022-11-20T22:16:51.475Z,54.71
2022-11-20T22:19:21.264Z,56.89
2022-11-20T22:21:50.804Z,59.41
2022-11-20T22:24:20.316Z,65.18
2022-11-20T22:26:49.092Z,66.38
2022-11-20T22:29:19.384Z,60.87
2022-11-20T22:31:48.082Z,55.61
2022-11-20T22:34:16.035Z,55.31
2022-11-20T22:36:44.041Z,56.50
2022-11-20T22:39:11.914Z,58.66
2022-11-20T22:41:39.873Z,65.11
2022-11-20T22:44:08.560Z,65.70
2022-11-20T22:46:37.813Z,60.55
2022-11-20T22:49:08.773Z,55.91
2022-11-20T22:51:39.912Z,55.32
2022-11-20T22:54:11.008Z,57.46
2022-11-20T22:56:39.518Z,58.90
2022-11-20T22:59:07.525Z,65.15
2022-11-20T23:01:37.003Z,66.48
2022-11-20T23:04:07.222Z,62.38
2022-11-20T23:06:35.587Z,56.93
2022-11-20T23:09:05.615Z,55.44
2022-11-20T23:11:33.662Z,57.12
2022-11-20T23:14:13.414Z,58.20
2022-11-20T23:16:42.100Z,64.77
2022-11-20T23:19:14.163Z,66.47
2022-11-20T23:21:43.201Z,61.92
2022-11-20T23:24:11.732Z,56.37
2022-11-20T23:26:40.880Z,54.12
2022-11-20T23:29:09.016Z,58.01
2022-11-20T23:31:36.989Z,61.74
2022-11-20T23:34:05.282Z,66.17
2022-11-20T23:36:33.379Z,64.72
2022-11-20T23:39:01.312Z,61.53
2022-11-20T23:41:29.370Z,57.26
2022-11-20T23:43:57.287Z,58.42
2022-11-20T23:46:25.520Z,62.81
2022-11-20T23:48:53.454Z,65.67
2022-11-20T23:51:21.344Z,61.80
2022-11-20T23:53:49.250Z,57.46
2022-11-20T23:56:17.145Z,57.58
2022-11-20T23:58:45.041Z,63.41
